sensor_id;sensor_type;location;lat;lon;timestamp;temperature;humidity
18047;DHT22;9148;51.454;13.862;2023-03-01T00:00:39;-3.90;99.90
18047;DHT22;9148;51.454;13.862;2023-03-01T00:03:05;-3.90;99.90
18047;DHT22;9148;51.454;13.862;2023-03-01T00:05:30;-4.50;99.90
18047;DHT22;9148;51.454;13.862;2023-03-01T00:07:57;-3.80;99.90
18047;DHT22;9148;51.454;13.862;2023-03-01T00:10:23;-3.90;99.90
18047;DHT22;9148;51.454;13.862;2023-03-01T00:12:49;-4.00;99.90
18047;DHT22;9148;51.454;13.862;2023-03-01T00:15:14;-3.90;99.90
18047;DHT22;9148;51.454;13.862;2023-03-01T00:17:40;-4.00;99.90
18047;DHT22;9148;51.454;13.862;2023-03-01T00:20:06;-4.60;99.90
18047;DHT22;9148;51.454;13.862;2023-03-01T00:22:36;-4.00;99.90
18047;DHT22;9148;51.454;13.862;2023-03-01T00:25:03;-4.00;99.90
18047;DHT22;9148;51.454;13.862;2023-03-01T00:27:29;-3.90;99.90
18047;DHT22;9148;51.454;13.862;2023-03-01T00:29:54;-4.00;99.90
18047;DHT22;9148;51.454;13.862;2023-03-01T00:32:20;-4.00;99.90
18047;DHT22;9148;51.454;13.862;2023-03-01T00:34:46;-4.00;99.90
18047;DHT22;9148;51.454;13.862;2023-03-01T00:37:20;-4.40;99.90
18047;DHT22;9148;51.454;13.862;2023-03-01T00:39:46;-4.10;99.90
18047;DHT22;9148;51.454;13.862;2023-03-01T00:42:12;-4.20;99.90
18047;DHT22;9148;51.454;13.862;2023-03-01T00:44:38;-4.10;99.90
18047;DHT22;9148;51.454;13.862;2023-03-01T00:47:04;-4.20;99.90
18047;DHT22;9148;51.454;13.862;2023-03-01T00:49:29;-4.00;99.90
18047;DHT22;9148;51.454;13.862;2023-03-01T00:51:55;-3.20;99.90
18047;DHT22;9148;51.454;13.862;2023-03-01T00:54:21;-3.70;99.90
18047;DHT22;9148;51.454;13.862;2023-03-01T00:56:46;-4.20;99.90
18047;DHT22;9148;51.454;13.862;2023-03-01T00:59:12;-4.20;99.90
18047;DHT22;9148;51.454;13.862;2023-03-01T01:01:38;-4.20;99.90
18047;DHT22;9148;51.454;13.862;2023-03-01T01:04:06;-4.20;99.90
18047;DHT22;9148;51.454;13.862;2023-03-01T01:06:42;-4.30;99.90
18047;DHT22;9148;51.454;13.862;2023-03-01T01:09:11;-4.20;99.90
18047;DHT22;9148;51.454;13.862;2023-03-01T01:11:49;-4.40;99.90
18047;DHT22;9148;51.454;13.862;2023-03-01T01:14:17;-4.30;99.90
18047;DHT22;9148;51.454;13.862;2023-03-01T01:16:43;-4.40;99.90
18047;DHT22;9148;51.454;13.862;2023-03-01T01:19:10;-3.90;99.90
18047;DHT22;9148;51.454;13.862;2023-03-01T01:21:36;-4.40;99.90
18047;DHT22;9148;51.454;13.862;2023-03-01T01:24:03;-4.40;99.90
18047;DHT22;9148;51.454;13.862;2023-03-01T01:26:31;-4.40;99.90
18047;DHT22;9148;51.454;13.862;2023-03-01T01:28:59;-4.30;99.90
18047;DHT22;9148;51.454;13.862;2023-03-01T01:31:42;-4.30;99.90
18047;DHT22;9148;51.454;13.862;2023-03-01T01:34:15;-4.40;99.90
18047;DHT22;9148;51.454;13.862;2023-03-01T01:36:43;-4.40;99.90
18047;DHT22;9148;51.454;13.862;2023-03-01T01:39:09;-4.40;99.90
18047;DHT22;9148;51.454;13.862;2023-03-01T01:41:40;-4.40;99.90
18047;DHT22;9148;51.454;13.862;2023-03-01T01:49:51;-4.40;99.90
18047;DHT22;9148;51.454;13.862;2023-03-01T01:52:30;-4.60;99.90
18047;DHT22;9148;51.454;13.862;2023-03-01T01:55:03;-4.50;99.90
18047;DHT22;9148;51.454;13.862;2023-03-01T01:57:43;-4.70;99.90
18047;DHT22;9148;51.454;13.862;2023-03-01T02:00:22;-4.60;99.90
18047;DHT22;9148;51.454;13.862;2023-03-01T02:02:54;-4.70;99.90
18047;DHT22;9148;51.454;13.862;2023-03-01T02:05:45;-4.70;99.90
18047;DHT22;9148;51.454;13.862;2023-03-01T02:08:16;-4.60;99.90
18047;DHT22;9148;51.454;13.862;2023-03-01T02:10:42;-4.70;99.90
18047;DHT22;9148;51.454;13.862;2023-03-01T02:13:09;-4.70;99.90
18047;DHT22;9148;51.454;13.862;2023-03-01T02:15:38;-4.70;99.90
18047;DHT22;9148;51.454;13.862;2023-03-01T02:18:05;-4.70;99.90
18047;DHT22;9148;51.454;13.862;2023-03-01T02:23:23;-4.80;99.90
18047;DHT22;9148;51.454;13.862;2023-03-01T02:25:58;-4.90;99.90
18047;DHT22;9148;51.454;13.862;2023-03-01T02:28:35;-4.90;99.90
18047;DHT22;9148;51.454;13.862;2023-03-01T02:31:04;-4.90;99.90
18047;DHT22;9148;51.454;13.862;2023-03-01T02:33:51;-5.00;99.90
18047;DHT22;9148;51.454;13.862;2023-03-01T02:36:19;-5.10;99.90
18047;DHT22;9148;51.454;13.862;2023-03-01T02:38:48;-4.90;99.90
18047;DHT22;9148;51.454;13.862;2023-03-01T02:41:16;-4.10;99.90
18047;DHT22;9148;51.454;13.862;2023-03-01T02:43:43;-5.00;99.90
18047;DHT22;9148;51.454;13.862;2023-03-01T02:46:15;-5.00;99.90
18047;DHT22;9148;51.454;13.862;2023-03-01T02:48:46;-5.10;99.90
18047;DHT22;9148;51.454;13.862;2023-03-01T02:54:28;-5.00;99.90
18047;DHT22;9148;51.454;13.862;2023-03-01T02:56:57;-5.20;99.90
18047;DHT22;9148;51.454;13.862;2023-03-01T02:59:28;-5.10;99.90
18047;DHT22;9148;51.454;13.862;2023-03-01T03:01:56;-4.10;99.90
18047;DHT22;9148;51.454;13.862;2023-03-01T03:04:21;-5.30;99.90
18047;DHT22;9148;51.454;13.862;2023-03-01T03:06:49;-5.20;99.90
18047;DHT22;9148;51.454;13.862;2023-03-01T03:09:17;-5.30;99.90
18047;DHT22;9148;51.454;13.862;2023-03-01T03:11:43;-4.40;99.90
18047;DHT22;9148;51.454;13.862;2023-03-01T03:14:14;-5.40;99.90
18047;DHT22;9148;51.454;13.862;2023-03-01T03:16:43;-5.20;99.90
18047;DHT22;9148;51.454;13.862;2023-03-01T03:19:10;-5.30;99.90
18047;DHT22;9148;51.454;13.862;2023-03-01T03:21:36;-5.30;99.90
18047;DHT22;9148;51.454;13.862;2023-03-01T03:24:02;-5.20;99.90
18047;DHT22;9148;51.454;13.862;2023-03-01T03:26:29;-5.20;99.90
18047;DHT22;9148;51.454;13.862;2023-03-01T03:29:01;-5.20;99.90
18047;DHT22;9148;51.454;13.862;2023-03-01T03:31:27;-5.20;99.90
18047;DHT22;9148;51.454;13.862;2023-03-01T03:33:53;-5.20;99.90
18047;DHT22;9148;51.454;13.862;2023-03-01T03:36:21;-5.30;99.90
18047;DHT22;9148;51.454;13.862;2023-03-01T03:38:48;-5.20;99.90
18047;DHT22;9148;51.454;13.862;2023-03-01T03:41:15;-5.40;99.90
18047;DHT22;9148;51.454;13.862;2023-03-01T03:43:42;-5.20;99.90
18047;DHT22;9148;51.454;13.862;2023-03-01T03:46:09;-5.30;99.90
18047;DHT22;9148;51.454;13.862;2023-03-01T03:48:42;-5.30;99.90
18047;DHT22;9148;51.454;13.862;2023-03-01T03:51:15;-5.30;99.90
18047;DHT22;9148;51.454;13.862;2023-03-01T03:53:42;-5.40;99.90
18047;DHT22;9148;51.454;13.862;2023-03-01T03:56:08;-5.40;99.90
18047;DHT22;9148;51.454;13.862;2023-03-01T03:58:34;-5.40;99.90
18047;DHT22;9148;51.454;13.862;2023-03-01T04:01:00;-5.20;99.90
18047;DHT22;9148;51.454;13.862;2023-03-01T04:03:28;-5.30;99.90
18047;DHT22;9148;51.454;13.862;2023-03-01T04:05:57;-5.20;99.90
18047;DHT22;9148;51.454;13.862;2023-03-01T04:08:24;-5.30;99.90
18047;DHT22;9148;51.454;13.862;2023-03-01T04:10:51;-5.30;99.90
18047;DHT22;9148;51.454;13.862;2023-03-01T04:13:28;-5.30;99.90
18047;DHT22;9148;51.454;13.862;2023-03-01T04:15:54;-5.30;99.90
18047;DHT22;9148;51.454;13.862;2023-03-01T04:18:22;-5.50;99.90
18047;DHT22;9148;51.454;13.862;2023-03-01T04:20:49;-5.50;99.90
18047;DHT22;9148;51.454;13.862;2023-03-01T04:23:18;-5.40;99.90
18047;DHT22;9148;51.454;13.862;2023-03-01T04:31:07;-5.60;99.90
18047;DHT22;9148;51.454;13.862;2023-03-01T04:33:45;-5.60;99.90
18047;DHT22;9148;51.454;13.862;2023-03-01T04:36:13;-5.70;99.90
18047;DHT22;9148;51.454;13.862;2023-03-01T04:38:40;-5.70;99.90
18047;DHT22;9148;51.454;13.862;2023-03-01T04:41:09;-5.70;99.90
18047;DHT22;9148;51.454;13.862;2023-03-01T04:43:54;-5.80;99.90
18047;DHT22;9148;51.454;13.862;2023-03-01T04:46:20;-5.80;99.90
18047;DHT22;9148;51.454;13.862;2023-03-01T04:48:46;-5.90;99.90
18047;DHT22;9148;51.454;13.862;2023-03-01T04:51:12;-6.00;99.90
18047;DHT22;9148;51.454;13.862;2023-03-01T04:53:39;-6.00;99.90
18047;DHT22;9148;51.454;13.862;2023-03-01T04:56:05;-6.00;99.90
18047;DHT22;9148;51.454;13.862;2023-03-01T04:58:31;-5.90;99.90
18047;DHT22;9148;51.454;13.862;2023-03-01T05:00:57;-5.90;99.90
18047;DHT22;9148;51.454;13.862;2023-03-01T05:03:23;-5.90;99.90
18047;DHT22;9148;51.454;13.862;2023-03-01T05:05:51;-5.90;99.90
18047;DHT22;9148;51.454;13.862;2023-03-01T05:08:17;-5.90;99.90
18047;DHT22;9148;51.454;13.862;2023-03-01T05:10:46;-5.90;99.90
18047;DHT22;9148;51.454;13.862;2023-03-01T05:13:15;-6.00;99.90
18047;DHT22;9148;51.454;13.862;2023-03-01T05:15:47;-5.90;99.90
18047;DHT22;9148;51.454;13.862;2023-03-01T05:18:18;-5.90;99.90
18047;DHT22;9148;51.454;13.862;2023-03-01T05:20:44;-5.80;99.90
18047;DHT22;9148;51.454;13.862;2023-03-01T05:23:09;-5.90;99.90
18047;DHT22;9148;51.454;13.862;2023-03-01T05:25:35;-5.90;99.90
18047;DHT22;9148;51.454;13.862;2023-03-01T05:28:06;-5.90;99.90
18047;DHT22;9148;51.454;13.862;2023-03-01T05:30:35;-5.90;99.90
18047;DHT22;9148;51.454;13.862;2023-03-01T05:33:01;-5.80;99.90
18047;DHT22;9148;51.454;13.862;2023-03-01T05:35:27;-5.80;99.90
18047;DHT22;9148;51.454;13.862;2023-03-01T05:37:54;-5.80;99.90
18047;DHT22;9148;51.454;13.862;2023-03-01T05:40:22;-6.80;99.90
18047;DHT22;9148;51.454;13.862;2023-03-01T05:42:52;-5.70;99.90
18047;DHT22;9148;51.454;13.862;2023-03-01T05:45:20;-5.70;99.90
18047;DHT22;9148;51.454;13.862;2023-03-01T05:47:47;-5.60;99.90
18047;DHT22;9148;51.454;13.862;2023-03-01T05:52:57;-5.90;99.90
18047;DHT22;9148;51.454;13.862;2023-03-01T05:55:24;-5.80;99.90
18047;DHT22;9148;51.454;13.862;2023-03-01T05:57:49;-5.90;99.90
18047;DHT22;9148;51.454;13.862;2023-03-01T06:00:17;-6.00;99.90
18047;DHT22;9148;51.454;13.862;2023-03-01T06:02:44;-6.00;99.90
18047;DHT22;9148;51.454;13.862;2023-03-01T06:05:12;-6.10;99.90
18047;DHT22;9148;51.454;13.862;2023-03-01T06:07:38;-6.10;99.90
18047;DHT22;9148;51.454;13.862;2023-03-01T06:10:05;-6.10;99.90
18047;DHT22;9148;51.454;13.862;2023-03-01T06:12:32;-5.80;99.90
18047;DHT22;9148;51.454;13.862;2023-03-01T06:14:59;-5.70;99.90
18047;DHT22;9148;51.454;13.862;2023-03-01T06:17:26;-6.10;99.90
18047;DHT22;9148;51.454;13.862;2023-03-01T06:19:54;-6.10;99.90
18047;DHT22;9148;51.454;13.862;2023-03-01T06:22:19;-5.40;99.90
18047;DHT22;9148;51.454;13.862;2023-03-01T06:24:45;-5.90;99.90
18047;DHT22;9148;51.454;13.862;2023-03-01T06:27:11;-5.80;99.90
18047;DHT22;9148;51.454;13.862;2023-03-01T06:29:36;-5.70;99.90
18047;DHT22;9148;51.454;13.862;2023-03-01T06:32:02;-5.40;99.90
18047;DHT22;9148;51.454;13.862;2023-03-01T06:34:29;-5.20;99.90
18047;DHT22;9148;51.454;13.862;2023-03-01T06:36:55;-4.90;99.90
18047;DHT22;9148;51.454;13.862;2023-03-01T06:39:20;-4.70;99.90
18047;DHT22;9148;51.454;13.862;2023-03-01T06:41:46;-4.40;99.90
18047;DHT22;9148;51.454;13.862;2023-03-01T06:44:12;-4.40;99.90
18047;DHT22;9148;51.454;13.862;2023-03-01T06:46:39;-4.20;99.90
18047;DHT22;9148;51.454;13.862;2023-03-01T06:49:05;-3.80;99.90
18047;DHT22;9148;51.454;13.862;2023-03-01T06:51:37;-3.90;99.90
18047;DHT22;9148;51.454;13.862;2023-03-01T06:54:06;-3.70;99.90
18047;DHT22;9148;51.454;13.862;2023-03-01T06:56:32;-2.50;99.90
18047;DHT22;9148;51.454;13.862;2023-03-01T06:58:58;-3.50;99.90
18047;DHT22;9148;51.454;13.862;2023-03-01T07:01:24;-3.30;99.90
18047;DHT22;9148;51.454;13.862;2023-03-01T07:03:49;-3.20;99.90
18047;DHT22;9148;51.454;13.862;2023-03-01T07:06:15;-2.90;99.90
18047;DHT22;9148;51.454;13.862;2023-03-01T07:08:41;-2.80;99.90
18047;DHT22;9148;51.454;13.862;2023-03-01T07:11:06;-2.70;99.90
18047;DHT22;9148;51.454;13.862;2023-03-01T07:13:33;-2.60;99.90
18047;DHT22;9148;51.454;13.862;2023-03-01T07:15:59;-2.40;99.90
18047;DHT22;9148;51.454;13.862;2023-03-01T07:18:24;-2.10;99.90
18047;DHT22;9148;51.454;13.862;2023-03-01T07:20:50;-1.80;99.90
18047;DHT22;9148;51.454;13.862;2023-03-01T07:23:16;-1.60;99.90
18047;DHT22;9148;51.454;13.862;2023-03-01T07:25:41;-1.40;99.90
18047;DHT22;9148;51.454;13.862;2023-03-01T07:28:07;-1.20;99.90
18047;DHT22;9148;51.454;13.862;2023-03-01T07:30:33;-1.00;99.90
18047;DHT22;9148;51.454;13.862;2023-03-01T07:32:59;-0.80;99.90
18047;DHT22;9148;51.454;13.862;2023-03-01T07:35:26;-0.50;99.90
18047;DHT22;9148;51.454;13.862;2023-03-01T07:37:52;0.00;99.90
18047;DHT22;9148;51.454;13.862;2023-03-01T07:40:18;-0.10;99.90
18047;DHT22;9148;51.454;13.862;2023-03-01T07:42:44;0.20;99.90
18047;DHT22;9148;51.454;13.862;2023-03-01T07:45:10;0.50;99.90
18047;DHT22;9148;51.454;13.862;2023-03-01T07:47:37;1.80;99.90
18047;DHT22;9148;51.454;13.862;2023-03-01T07:50:03;1.10;99.90
18047;DHT22;9148;51.454;13.862;2023-03-01T07:52:30;2.10;99.90
18047;DHT22;9148;51.454;13.862;2023-03-01T07:54:56;1.60;99.90
18047;DHT22;9148;51.454;13.862;2023-03-01T07:57:22;1.90;99.90
18047;DHT22;9148;51.454;13.862;2023-03-01T07:59:48;2.20;99.90
18047;DHT22;9148;51.454;13.862;2023-03-01T08:02:14;2.60;99.90
18047;DHT22;9148;51.454;13.862;2023-03-01T08:04:41;2.80;99.90
18047;DHT22;9148;51.454;13.862;2023-03-01T08:07:07;3.50;99.90
18047;DHT22;9148;51.454;13.862;2023-03-01T08:09:36;3.30;99.90
18047;DHT22;9148;51.454;13.862;2023-03-01T08:12:03;3.70;99.90
18047;DHT22;9148;51.454;13.862;2023-03-01T08:14:30;4.10;99.90
18047;DHT22;9148;51.454;13.862;2023-03-01T08:16:57;4.30;99.90
18047;DHT22;9148;51.454;13.862;2023-03-01T08:19:23;4.50;99.90
18047;DHT22;9148;51.454;13.862;2023-03-01T08:21:49;4.90;99.90
18047;DHT22;9148;51.454;13.862;2023-03-01T08:24:14;5.00;99.90
18047;DHT22;9148;51.454;13.862;2023-03-01T08:26:40;6.20;99.90
18047;DHT22;9148;51.454;13.862;2023-03-01T08:29:06;5.40;99.90
18047;DHT22;9148;51.454;13.862;2023-03-01T08:31:37;5.50;99.90
18047;DHT22;9148;51.454;13.862;2023-03-01T08:34:09;6.30;99.90
18047;DHT22;9148;51.454;13.862;2023-03-01T08:36:42;6.10;99.90
18047;DHT22;9148;51.454;13.862;2023-03-01T08:39:10;5.90;99.90
18047;DHT22;9148;51.454;13.862;2023-03-01T08:41:38;6.20;99.90
18047;DHT22;9148;51.454;13.862;2023-03-01T08:44:04;6.90;99.90
18047;DHT22;9148;51.454;13.862;2023-03-01T08:46:37;7.60;99.90
18047;DHT22;9148;51.454;13.862;2023-03-01T08:49:08;7.00;99.90
18047;DHT22;9148;51.454;13.862;2023-03-01T08:51:36;7.10;99.90
18047;DHT22;9148;51.454;13.862;2023-03-01T08:54:07;7.30;99.20
18047;DHT22;9148;51.454;13.862;2023-03-01T08:56:36;7.50;98.40
18047;DHT22;9148;51.454;13.862;2023-03-01T08:59:02;7.70;97.60
18047;DHT22;9148;51.454;13.862;2023-03-01T09:01:28;7.80;94.70
18047;DHT22;9148;51.454;13.862;2023-03-01T09:03:53;7.80;93.10
18047;DHT22;9148;51.454;13.862;2023-03-01T09:06:19;7.70;90.60
18047;DHT22;9148;51.454;13.862;2023-03-01T09:08:47;7.50;91.70
18047;DHT22;9148;51.454;13.862;2023-03-01T09:11:16;7.60;91.90
18047;DHT22;9148;51.454;13.862;2023-03-01T09:13:44;7.70;91.00
18047;DHT22;9148;51.454;13.862;2023-03-01T09:16:24;7.80;91.40
18047;DHT22;9148;51.454;13.862;2023-03-01T09:18:53;8.50;91.50
18047;DHT22;9148;51.454;13.862;2023-03-01T09:21:20;8.30;91.30
18047;DHT22;9148;51.454;13.862;2023-03-01T09:23:48;8.40;89.90
18047;DHT22;9148;51.454;13.862;2023-03-01T09:26:19;8.60;90.10
18047;DHT22;9148;51.454;13.862;2023-03-01T09:28:48;8.70;88.00
18047;DHT22;9148;51.454;13.862;2023-03-01T09:31:16;8.80;85.70
18047;DHT22;9148;51.454;13.862;2023-03-01T09:33:46;8.90;83.50
18047;DHT22;9148;51.454;13.862;2023-03-01T09:36:16;8.90;78.30
18047;DHT22;9148;51.454;13.862;2023-03-01T09:38:44;8.80;78.00
18047;DHT22;9148;51.454;13.862;2023-03-01T09:46:57;9.00;78.20
18047;DHT22;9148;51.454;13.862;2023-03-01T09:49:33;9.30;78.90
18047;DHT22;9148;51.454;13.862;2023-03-01T09:52:19;9.50;79.00
18047;DHT22;9148;51.454;13.862;2023-03-01T09:54:53;9.80;77.00
18047;DHT22;9148;51.454;13.862;2023-03-01T10:00:30;10.00;71.10
18047;DHT22;9148;51.454;13.862;2023-03-01T10:03:22;10.10;69.30
18047;DHT22;9148;51.454;13.862;2023-03-01T10:05:56;10.20;69.70
18047;DHT22;9148;51.454;13.862;2023-03-01T10:08:36;10.40;69.40
18047;DHT22;9148;51.454;13.862;2023-03-01T10:11:20;10.60;69.40
18047;DHT22;9148;51.454;13.862;2023-03-01T10:14:15;10.70;66.70
18047;DHT22;9148;51.454;13.862;2023-03-01T10:20:21;10.70;59.50
18047;DHT22;9148;51.454;13.862;2023-03-01T10:22:48;10.60;60.40
18047;DHT22;9148;51.454;13.862;2023-03-01T10:25:41;10.60;60.40
18047;DHT22;9148;51.454;13.862;2023-03-01T10:30:43;10.70;58.90
18047;DHT22;9148;51.454;13.862;2023-03-01T10:33:23;10.80;59.20
18047;DHT22;9148;51.454;13.862;2023-03-01T10:35:51;10.90;59.40
18047;DHT22;9148;51.454;13.862;2023-03-01T10:38:18;11.00;59.10
18047;DHT22;9148;51.454;13.862;2023-03-01T10:41:00;11.10;59.20
18047;DHT22;9148;51.454;13.862;2023-03-01T10:43:50;11.30;60.20
18047;DHT22;9148;51.454;13.862;2023-03-01T10:46:27;11.60;56.90
18047;DHT22;9148;51.454;13.862;2023-03-01T10:49:18;11.70;57.00
18047;DHT22;9148;51.454;13.862;2023-03-01T10:51:48;11.90;57.20
18047;DHT22;9148;51.454;13.862;2023-03-01T10:54:30;12.00;56.50
18047;DHT22;9148;51.454;13.862;2023-03-01T10:57:00;12.10;56.60
18047;DHT22;9148;51.454;13.862;2023-03-01T10:59:31;12.20;53.30
18047;DHT22;9148;51.454;13.862;2023-03-01T11:02:25;12.10;53.50
18047;DHT22;9148;51.454;13.862;2023-03-01T11:05:29;12.10;54.20
18047;DHT22;9148;51.454;13.862;2023-03-01T11:07:57;12.00;51.30
18047;DHT22;9148;51.454;13.862;2023-03-01T11:10:32;12.00;52.00
18047;DHT22;9148;51.454;13.862;2023-03-01T11:13:26;11.80;50.30
18047;DHT22;9148;51.454;13.862;2023-03-01T11:16:00;11.50;50.20
18047;DHT22;9148;51.454;13.862;2023-03-01T11:18:30;11.30;50.70
18047;DHT22;9148;51.454;13.862;2023-03-01T11:20:56;11.20;51.10
18047;DHT22;9148;51.454;13.862;2023-03-01T11:23:24;11.20;51.30
18047;DHT22;9148;51.454;13.862;2023-03-01T11:26:03;11.30;51.70
18047;DHT22;9148;51.454;13.862;2023-03-01T11:28:36;11.30;50.40
18047;DHT22;9148;51.454;13.862;2023-03-01T11:31:06;11.30;51.50
18047;DHT22;9148;51.454;13.862;2023-03-01T11:33:43;11.60;52.10
18047;DHT22;9148;51.454;13.862;2023-03-01T11:38:55;12.30;50.60
18047;DHT22;9148;51.454;13.862;2023-03-01T11:41:26;12.50;49.70
18047;DHT22;9148;51.454;13.862;2023-03-01T11:44:08;12.50;49.90
18047;DHT22;9148;51.454;13.862;2023-03-01T11:46:52;12.60;49.30
18047;DHT22;9148;51.454;13.862;2023-03-01T11:50:05;12.70;49.10
18047;DHT22;9148;51.454;13.862;2023-03-01T11:52:57;12.90;48.50
18047;DHT22;9148;51.454;13.862;2023-03-01T11:55:30;12.90;49.00
18047;DHT22;9148;51.454;13.862;2023-03-01T12:07:00;13.50;46.30
18047;DHT22;9148;51.454;13.862;2023-03-01T12:15:40;13.70;47.70
18047;DHT22;9148;51.454;13.862;2023-03-01T12:18:47;14.10;47.60
18047;DHT22;9148;51.454;13.862;2023-03-01T12:21:21;14.30;46.40
18047;DHT22;9148;51.454;13.862;2023-03-01T12:30:24;14.90;47.10
18047;DHT22;9148;51.454;13.862;2023-03-01T12:38:33;15.10;44.20
18047;DHT22;9148;51.454;13.862;2023-03-01T12:41:54;15.10;44.50
18047;DHT22;9148;51.454;13.862;2023-03-01T12:46:59;15.20;44.10
18047;DHT22;9148;51.454;13.862;2023-03-01T12:50:18;15.30;41.60
18047;DHT22;9148;51.454;13.862;2023-03-01T12:55:35;15.30;42.70
18047;DHT22;9148;51.454;13.862;2023-03-01T13:07:23;14.70;39.40
18047;DHT22;9148;51.454;13.862;2023-03-01T13:10:06;14.60;40.70
18047;DHT22;9148;51.454;13.862;2023-03-01T13:15:34;14.10;39.40
18047;DHT22;9148;51.454;13.862;2023-03-01T13:20:55;13.90;40.60
18047;DHT22;9148;51.454;13.862;2023-03-01T13:33:58;12.80;41.00
18047;DHT22;9148;51.454;13.862;2023-03-01T13:46:58;12.70;42.10
18047;DHT22;9148;51.454;13.862;2023-03-01T13:49:42;12.90;42.10
18047;DHT22;9148;51.454;13.862;2023-03-01T13:53:10;13.00;42.10
18047;DHT22;9148;51.454;13.862;2023-03-01T13:55:41;13.10;42.40
18047;DHT22;9148;51.454;13.862;2023-03-01T13:58:27;13.20;42.60
18047;DHT22;9148;51.454;13.862;2023-03-01T14:01:04;13.30;42.60
18047;DHT22;9148;51.454;13.862;2023-03-01T14:03:32;13.30;42.90
18047;DHT22;9148;51.454;13.862;2023-03-01T14:08:30;13.30;40.80
18047;DHT22;9148;51.454;13.862;2023-03-01T14:14:18;13.20;42.20
18047;DHT22;9148;51.454;13.862;2023-03-01T14:17:30;13.20;42.50
18047;DHT22;9148;51.454;13.862;2023-03-01T14:20:01;13.10;42.40
18047;DHT22;9148;51.454;13.862;2023-03-01T14:22:59;12.90;41.30
18047;DHT22;9148;51.454;13.862;2023-03-01T14:25:29;12.50;40.90
18047;DHT22;9148;51.454;13.862;2023-03-01T14:28:00;12.10;41.00
18047;DHT22;9148;51.454;13.862;2023-03-01T14:30:37;11.90;42.40
18047;DHT22;9148;51.454;13.862;2023-03-01T14:33:17;11.60;42.70
18047;DHT22;9148;51.454;13.862;2023-03-01T14:35:56;11.30;42.80
18047;DHT22;9148;51.454;13.862;2023-03-01T14:38:30;11.00;44.00
18047;DHT22;9148;51.454;13.862;2023-03-01T14:41:11;10.80;45.00
18047;DHT22;9148;51.454;13.862;2023-03-01T14:43:44;10.60;45.70
18047;DHT22;9148;51.454;13.862;2023-03-01T14:46:43;10.40;45.80
18047;DHT22;9148;51.454;13.862;2023-03-01T14:49:13;10.40;46.40
18047;DHT22;9148;51.454;13.862;2023-03-01T14:51:46;10.40;46.60
18047;DHT22;9148;51.454;13.862;2023-03-01T14:54:39;10.40;46.20
18047;DHT22;9148;51.454;13.862;2023-03-01T14:57:28;10.40;46.40
18047;DHT22;9148;51.454;13.862;2023-03-01T14:59:57;10.40;45.80
18047;DHT22;9148;51.454;13.862;2023-03-01T15:02:26;10.30;46.10
18047;DHT22;9148;51.454;13.862;2023-03-01T15:04:56;10.30;46.60
18047;DHT22;9148;51.454;13.862;2023-03-01T15:07:31;10.30;46.70
18047;DHT22;9148;51.454;13.862;2023-03-01T15:09:59;10.30;46.40
18047;DHT22;9148;51.454;13.862;2023-03-01T15:14:55;10.10;46.70
18047;DHT22;9148;51.454;13.862;2023-03-01T15:17:32;10.10;46.60
18047;DHT22;9148;51.454;13.862;2023-03-01T15:20:01;10.20;46.90
18047;DHT22;9148;51.454;13.862;2023-03-01T15:22:29;10.00;47.30
18047;DHT22;9148;51.454;13.862;2023-03-01T15:24:55;9.90;47.20
18047;DHT22;9148;51.454;13.862;2023-03-01T15:27:25;9.80;46.90
18047;DHT22;9148;51.454;13.862;2023-03-01T15:29:59;9.70;47.10
18047;DHT22;9148;51.454;13.862;2023-03-01T15:32:35;9.70;47.70
18047;DHT22;9148;51.454;13.862;2023-03-01T15:35:39;9.60;48.10
18047;DHT22;9148;51.454;13.862;2023-03-01T15:41:29;9.50;48.70
18047;DHT22;9148;51.454;13.862;2023-03-01T15:44:14;9.40;49.10
18047;DHT22;9148;51.454;13.862;2023-03-01T15:46:46;9.40;49.50
18047;DHT22;9148;51.454;13.862;2023-03-01T15:49:33;9.30;49.60
18047;DHT22;9148;51.454;13.862;2023-03-01T15:52:02;9.20;49.50
18047;DHT22;9148;51.454;13.862;2023-03-01T15:54:28;9.10;49.70
18047;DHT22;9148;51.454;13.862;2023-03-01T15:56:54;8.90;50.00
18047;DHT22;9148;51.454;13.862;2023-03-01T15:59:20;8.80;50.00
18047;DHT22;9148;51.454;13.862;2023-03-01T16:01:48;8.50;49.80
18047;DHT22;9148;51.454;13.862;2023-03-01T16:04:16;8.20;50.30
18047;DHT22;9148;51.454;13.862;2023-03-01T16:06:48;8.20;50.80
18047;DHT22;9148;51.454;13.862;2023-03-01T16:09:22;7.70;51.20
18047;DHT22;9148;51.454;13.862;2023-03-01T16:11:50;7.50;51.50
18047;DHT22;9148;51.454;13.862;2023-03-01T16:14:17;6.90;51.50
18047;DHT22;9148;51.454;13.862;2023-03-01T16:16:43;7.20;52.00
18047;DHT22;9148;51.454;13.862;2023-03-01T16:19:09;7.30;52.40
18047;DHT22;9148;51.454;13.862;2023-03-01T16:21:35;6.70;52.30
18047;DHT22;9148;51.454;13.862;2023-03-01T16:24:02;6.60;52.50
18047;DHT22;9148;51.454;13.862;2023-03-01T16:26:28;6.40;52.70
18047;DHT22;9148;51.454;13.862;2023-03-01T16:28:57;6.30;53.00
18047;DHT22;9148;51.454;13.862;2023-03-01T16:31:23;6.10;53.10
18047;DHT22;9148;51.454;13.862;2023-03-01T16:33:53;6.00;53.30
18047;DHT22;9148;51.454;13.862;2023-03-01T16:36:21;5.80;53.60
18047;DHT22;9148;51.454;13.862;2023-03-01T16:38:52;5.70;53.90
18047;DHT22;9148;51.454;13.862;2023-03-01T16:41:20;5.60;54.10
18047;DHT22;9148;51.454;13.862;2023-03-01T16:43:47;5.50;54.30
18047;DHT22;9148;51.454;13.862;2023-03-01T16:46:18;5.30;54.50
18047;DHT22;9148;51.454;13.862;2023-03-01T16:48:46;6.00;55.10
18047;DHT22;9148;51.454;13.862;2023-03-01T16:51:13;5.10;55.00
18047;DHT22;9148;51.454;13.862;2023-03-01T16:53:38;5.00;55.10
18047;DHT22;9148;51.454;13.862;2023-03-01T16:56:06;5.20;55.50
18047;DHT22;9148;51.454;13.862;2023-03-01T16:58:38;4.80;55.60
18047;DHT22;9148;51.454;13.862;2023-03-01T17:01:16;4.70;55.90
18047;DHT22;9148;51.454;13.862;2023-03-01T17:03:45;4.60;56.20
18047;DHT22;9148;51.454;13.862;2023-03-01T17:06:13;4.50;56.40
18047;DHT22;9148;51.454;13.862;2023-03-01T17:08:41;4.40;56.50
18047;DHT22;9148;51.454;13.862;2023-03-01T17:11:09;4.40;56.70
18047;DHT22;9148;51.454;13.862;2023-03-01T17:13:37;4.30;57.10
18047;DHT22;9148;51.454;13.862;2023-03-01T17:16:05;4.70;57.80
18047;DHT22;9148;51.454;13.862;2023-03-01T17:18:31;4.20;57.90
18047;DHT22;9148;51.454;13.862;2023-03-01T17:20:58;4.50;58.20
18047;DHT22;9148;51.454;13.862;2023-03-01T17:23:25;3.80;58.20
18047;DHT22;9148;51.454;13.862;2023-03-01T17:25:52;3.80;58.50
18047;DHT22;9148;51.454;13.862;2023-03-01T17:28:23;3.70;58.70
18047;DHT22;9148;51.454;13.862;2023-03-01T17:30:51;3.60;58.90
18047;DHT22;9148;51.454;13.862;2023-03-01T17:33:17;4.00;59.50
18047;DHT22;9148;51.454;13.862;2023-03-01T17:35:44;3.40;59.60
18047;DHT22;9148;51.454;13.862;2023-03-01T17:38:12;3.30;59.90
18047;DHT22;9148;51.454;13.862;2023-03-01T17:40:40;3.20;60.30
18047;DHT22;9148;51.454;13.862;2023-03-01T17:43:07;3.10;60.80
18047;DHT22;9148;51.454;13.862;2023-03-01T17:45:36;3.00;61.10
18047;DHT22;9148;51.454;13.862;2023-03-01T17:48:03;3.00;61.40
18047;DHT22;9148;51.454;13.862;2023-03-01T17:50:29;2.90;61.70
18047;DHT22;9148;51.454;13.862;2023-03-01T17:52:54;2.80;62.00
18047;DHT22;9148;51.454;13.862;2023-03-01T17:55:21;2.70;62.50